Flugplatz Flensburg-Schäferhaus

Für EDXF sind keine METAR/TAF Berichte vorhanden.
Es werden die Flugwettermeldungen vom Flugplatz Schleswig Airport in 36 km Entfernung angezeigt.

Bericht für ETNS

vom 28.01. um 16:20 UTC

Wind 9 kt aus 220°

Sichtweite 8000 m

schwacher Regenschauer

gering bewölkt in 800 ft

aufgebrochene Bewölkung in 1800 ft

aufgebrochene Bewölkung in 2800 ft

Temperatur 3.0°C

Taupunkt 2.0°C

Luftfeuchtigkeit 93%

Luftdruck 985 hPa

ETNS 281620Z 22009KT 8000 -SHRA FEW008 BKN018 BKN028 03/02 Q0985 WHT FCST CANCEL

Prognose für ETNS

vom 28.01. um 00:00 UTC

Zwischen 00:00 UTC und 00:00 UTC

Wind 12 kt aus 220°

Sichtweite 10 km oder mehr

keine signifikanten Wettererscheinungen

aufgebrochene Bewölkung in 1500 ft

aufgebrochene Bewölkung in 3000 ft


Zwischen 00:00 UTC und 00:00 UTC zeitweise

Wind 15 kt aus 250° in Böen 25 kt

Sichtweite 3000 m

Regenschauer

aufgelockert bewölkt in 500 ft

aufgebrochene Bewölkung in 2000 ft


Zwischen 00:00 UTC und 00:00 UTC mit einer Wahrscheinlichkeit von 30%

Wind 15 kt aus 270° in Böen 30 kt

Sichtweite 1500 m

Regenschauer

Schneeschauer

aufgebrochene Bewölkung in 500 ft

aufgebrochene Bewölkung in 1500 ft

TAF AMD ETNS 281624Z 2815/2824 22012KT 9999 NSW BKN015 BKN030 TEMPO 2815/2824 25015G25KT 3000 SHRA SCT005 BKN020CB PROB30 2815/2824 27015G30KT 1500 SHRASN BKN005 BKN015CB CANCEL BY ETGL
Impressum